sensor_id;sensor_type;location;lat;lon;timestamp;P1;durP1;ratioP1;P2;durP2;ratioP2
69334;SDS011;56477;52.742;15.242;2023-09-19T00:00:57;4.88;;;1.35;;
69334;SDS011;56477;52.742;15.242;2023-09-19T00:03:37;6.23;;;1.70;;
69334;SDS011;56477;52.742;15.242;2023-09-19T00:06:04;3.47;;;1.55;;
69334;SDS011;56477;52.742;15.242;2023-09-19T00:08:34;5.53;;;2.00;;
69334;SDS011;56477;52.742;15.242;2023-09-19T00:10:59;5.30;;;1.60;;
69334;SDS011;56477;52.742;15.242;2023-09-19T00:13:32;5.40;;;1.63;;
69334;SDS011;56477;52.742;15.242;2023-09-19T00:15:59;5.33;;;2.10;;
69334;SDS011;56477;52.742;15.242;2023-09-19T00:18:25;5.40;;;2.17;;
69334;SDS011;56477;52.742;15.242;2023-09-19T00:20:58;4.82;;;2.13;;
69334;SDS011;56477;52.742;15.242;2023-09-19T00:23:24;4.32;;;1.58;;
69334;SDS011;56477;52.742;15.242;2023-09-19T00:25:50;4.10;;;1.80;;
69334;SDS011;56477;52.742;15.242;2023-09-19T00:28:17;4.23;;;1.93;;
69334;SDS011;56477;52.742;15.242;2023-09-19T00:30:45;8.40;;;2.30;;
69334;SDS011;56477;52.742;15.242;2023-09-19T00:33:18;5.28;;;1.70;;
69334;SDS011;56477;52.742;15.242;2023-09-19T00:35:51;5.43;;;1.58;;
69334;SDS011;56477;52.742;15.242;2023-09-19T00:38:18;5.95;;;2.08;;
69334;SDS011;56477;52.742;15.242;2023-09-19T00:40:52;6.23;;;2.00;;
69334;SDS011;56477;52.742;15.242;2023-09-19T00:43:22;4.38;;;2.08;;
69334;SDS011;56477;52.742;15.242;2023-09-19T00:45:50;5.35;;;1.42;;
69334;SDS011;56477;52.742;15.242;2023-09-19T00:48:19;4.03;;;1.73;;
69334;SDS011;56477;52.742;15.242;2023-09-19T00:50:47;4.97;;;2.15;;
69334;SDS011;56477;52.742;15.242;2023-09-19T00:53:18;5.90;;;1.90;;
69334;SDS011;56477;52.742;15.242;2023-09-19T00:55:46;4.32;;;1.63;;
69334;SDS011;56477;52.742;15.242;2023-09-19T00:58:12;5.38;;;1.48;;
69334;SDS011;56477;52.742;15.242;2023-09-19T01:00:38;6.20;;;2.50;;
69334;SDS011;56477;52.742;15.242;2023-09-19T01:03:05;5.30;;;2.80;;
69334;SDS011;56477;52.742;15.242;2023-09-19T01:05:33;6.18;;;2.53;;
69334;SDS011;56477;52.742;15.242;2023-09-19T01:07:59;4.80;;;1.88;;
69334;SDS011;56477;52.742;15.242;2023-09-19T01:10:25;6.07;;;2.30;;
69334;SDS011;56477;52.742;15.242;2023-09-19T01:15:55;9.60;;;2.67;;
69334;SDS011;56477;52.742;15.242;2023-09-19T01:18:33;3.72;;;1.83;;
69334;SDS011;56477;52.742;15.242;2023-09-19T01:26:45;7.20;;;2.70;;
69334;SDS011;56477;52.742;15.242;2023-09-19T01:32:05;5.55;;;2.42;;
69334;SDS011;56477;52.742;15.242;2023-09-19T01:34:44;8.32;;;3.70;;
69334;SDS011;56477;52.742;15.242;2023-09-19T01:37:19;7.53;;;3.27;;
69334;SDS011;56477;52.742;15.242;2023-09-19T01:39:59;5.50;;;2.30;;
69334;SDS011;56477;52.742;15.242;2023-09-19T01:48:33;9.30;;;3.50;;
69334;SDS011;56477;52.742;15.242;2023-09-19T01:51:10;8.67;;;3.80;;
69334;SDS011;56477;52.742;15.242;2023-09-19T01:56:31;4.97;;;1.95;;
69334;SDS011;56477;52.742;15.242;2023-09-19T01:59:04;5.43;;;2.70;;
69334;SDS011;56477;52.742;15.242;2023-09-19T02:01:36;4.72;;;2.17;;
69334;SDS011;56477;52.742;15.242;2023-09-19T02:04:03;5.60;;;2.83;;
69334;SDS011;56477;52.742;15.242;2023-09-19T02:06:30;4.50;;;2.42;;
69334;SDS011;56477;52.742;15.242;2023-09-19T02:08:56;8.13;;;2.88;;
69334;SDS011;56477;52.742;15.242;2023-09-19T02:11:23;6.80;;;2.83;;
69334;SDS011;56477;52.742;15.242;2023-09-19T02:13:48;6.30;;;1.95;;
69334;SDS011;56477;52.742;15.242;2023-09-19T02:16:20;5.70;;;2.17;;
69334;SDS011;56477;52.742;15.242;2023-09-19T02:18:49;7.60;;;3.20;;
69334;SDS011;56477;52.742;15.242;2023-09-19T02:21:15;4.97;;;2.78;;
69334;SDS011;56477;52.742;15.242;2023-09-19T02:23:42;5.78;;;2.55;;
69334;SDS011;56477;52.742;15.242;2023-09-19T02:26:10;8.18;;;3.13;;
69334;SDS011;56477;52.742;15.242;2023-09-19T02:28:37;7.23;;;2.87;;
69334;SDS011;56477;52.742;15.242;2023-09-19T02:31:03;6.22;;;2.60;;
69334;SDS011;56477;52.742;15.242;2023-09-19T02:33:31;4.30;;;2.08;;
69334;SDS011;56477;52.742;15.242;2023-09-19T02:35:57;7.75;;;2.20;;
69334;SDS011;56477;52.742;15.242;2023-09-19T02:38:24;4.88;;;2.17;;
69334;SDS011;56477;52.742;15.242;2023-09-19T02:40:51;4.00;;;2.07;;
69334;SDS011;56477;52.742;15.242;2023-09-19T02:43:18;4.72;;;2.22;;
69334;SDS011;56477;52.742;15.242;2023-09-19T02:45:47;6.00;;;1.95;;
69334;SDS011;56477;52.742;15.242;2023-09-19T02:48:18;4.05;;;2.17;;
69334;SDS011;56477;52.742;15.242;2023-09-19T02:50:44;7.72;;;2.78;;
69334;SDS011;56477;52.742;15.242;2023-09-19T02:53:11;4.33;;;1.50;;
69334;SDS011;56477;52.742;15.242;2023-09-19T02:55:40;4.57;;;1.50;;
69334;SDS011;56477;52.742;15.242;2023-09-19T02:58:06;6.07;;;1.27;;
69334;SDS011;56477;52.742;15.242;2023-09-19T03:00:39;5.03;;;2.40;;
69334;SDS011;56477;52.742;15.242;2023-09-19T03:03:07;5.95;;;2.45;;
69334;SDS011;56477;52.742;15.242;2023-09-19T03:05:34;6.87;;;2.33;;
69334;SDS011;56477;52.742;15.242;2023-09-19T03:08:00;4.70;;;1.58;;
69334;SDS011;56477;52.742;15.242;2023-09-19T03:10:27;4.90;;;2.10;;
69334;SDS011;56477;52.742;15.242;2023-09-19T03:12:53;6.60;;;2.28;;
69334;SDS011;56477;52.742;15.242;2023-09-19T03:15:19;4.85;;;1.45;;
69334;SDS011;56477;52.742;15.242;2023-09-19T03:17:47;6.63;;;2.80;;
69334;SDS011;56477;52.742;15.242;2023-09-19T03:20:14;8.25;;;2.50;;
69334;SDS011;56477;52.742;15.242;2023-09-19T03:22:43;5.13;;;2.00;;
69334;SDS011;56477;52.742;15.242;2023-09-19T03:25:09;4.47;;;1.75;;
69334;SDS011;56477;52.742;15.242;2023-09-19T03:27:37;7.38;;;2.47;;
69334;SDS011;56477;52.742;15.242;2023-09-19T03:30:04;6.03;;;1.90;;
69334;SDS011;56477;52.742;15.242;2023-09-19T03:32:32;5.72;;;2.33;;
69334;SDS011;56477;52.742;15.242;2023-09-19T03:34:58;3.28;;;0.85;;
69334;SDS011;56477;52.742;15.242;2023-09-19T03:37:24;3.63;;;1.83;;
69334;SDS011;56477;52.742;15.242;2023-09-19T03:39:50;6.20;;;2.47;;
69334;SDS011;56477;52.742;15.242;2023-09-19T03:42:16;6.78;;;2.80;;
69334;SDS011;56477;52.742;15.242;2023-09-19T03:44:42;2.95;;;1.42;;
69334;SDS011;56477;52.742;15.242;2023-09-19T03:47:08;4.57;;;1.92;;
69334;SDS011;56477;52.742;15.242;2023-09-19T03:49:34;2.90;;;1.13;;
69334;SDS011;56477;52.742;15.242;2023-09-19T03:52:01;5.13;;;2.15;;
69334;SDS011;56477;52.742;15.242;2023-09-19T03:54:26;6.40;;;1.53;;
69334;SDS011;56477;52.742;15.242;2023-09-19T03:56:52;7.17;;;2.10;;
69334;SDS011;56477;52.742;15.242;2023-09-19T03:59:18;2.00;;;0.90;;
69334;SDS011;56477;52.742;15.242;2023-09-19T04:01:44;6.72;;;1.73;;
69334;SDS011;56477;52.742;15.242;2023-09-19T04:04:10;5.17;;;2.40;;
69334;SDS011;56477;52.742;15.242;2023-09-19T04:06:38;7.22;;;3.33;;
69334;SDS011;56477;52.742;15.242;2023-09-19T04:09:04;5.20;;;2.40;;
69334;SDS011;56477;52.742;15.242;2023-09-19T04:11:32;6.65;;;2.38;;
69334;SDS011;56477;52.742;15.242;2023-09-19T04:13:59;6.13;;;2.50;;
69334;SDS011;56477;52.742;15.242;2023-09-19T04:16:29;4.78;;;2.25;;
69334;SDS011;56477;52.742;15.242;2023-09-19T04:18:55;3.10;;;1.25;;
69334;SDS011;56477;52.742;15.242;2023-09-19T04:21:21;6.05;;;2.30;;
69334;SDS011;56477;52.742;15.242;2023-09-19T04:23:47;5.53;;;2.43;;
69334;SDS011;56477;52.742;15.242;2023-09-19T04:26:13;3.85;;;1.70;;
69334;SDS011;56477;52.742;15.242;2023-09-19T04:28:38;7.47;;;2.30;;
69334;SDS011;56477;52.742;15.242;2023-09-19T04:31:05;5.45;;;1.50;;
69334;SDS011;56477;52.742;15.242;2023-09-19T04:33:32;4.30;;;2.17;;
69334;SDS011;56477;52.742;15.242;2023-09-19T04:36:00;5.82;;;2.50;;
69334;SDS011;56477;52.742;15.242;2023-09-19T04:38:28;6.65;;;2.30;;
69334;SDS011;56477;52.742;15.242;2023-09-19T04:40:57;5.93;;;2.70;;
69334;SDS011;56477;52.742;15.242;2023-09-19T04:43:26;6.25;;;2.00;;
69334;SDS011;56477;52.742;15.242;2023-09-19T04:45:52;5.18;;;2.47;;
69334;SDS011;56477;52.742;15.242;2023-09-19T04:48:23;5.10;;;2.08;;
69334;SDS011;56477;52.742;15.242;2023-09-19T04:50:50;4.30;;;2.60;;
69334;SDS011;56477;52.742;15.242;2023-09-19T04:53:19;5.73;;;1.97;;
69334;SDS011;56477;52.742;15.242;2023-09-19T04:55:49;4.60;;;1.67;;
69334;SDS011;56477;52.742;15.242;2023-09-19T04:58:17;6.03;;;1.85;;
69334;SDS011;56477;52.742;15.242;2023-09-19T05:00:45;3.88;;;1.50;;
69334;SDS011;56477;52.742;15.242;2023-09-19T05:03:10;7.80;;;2.47;;
69334;SDS011;56477;52.742;15.242;2023-09-19T05:05:36;6.45;;;2.67;;
69334;SDS011;56477;52.742;15.242;2023-09-19T05:08:04;5.88;;;2.17;;
69334;SDS011;56477;52.742;15.242;2023-09-19T05:10:31;6.72;;;2.40;;
69334;SDS011;56477;52.742;15.242;2023-09-19T05:12:57;3.17;;;1.73;;
69334;SDS011;56477;52.742;15.242;2023-09-19T05:15:24;2.63;;;0.93;;
69334;SDS011;56477;52.742;15.242;2023-09-19T05:17:50;5.25;;;2.30;;
69334;SDS011;56477;52.742;15.242;2023-09-19T05:20:17;3.20;;;1.23;;
69334;SDS011;56477;52.742;15.242;2023-09-19T05:25:33;5.40;;;2.23;;
69334;SDS011;56477;52.742;15.242;2023-09-19T05:28:04;5.15;;;3.00;;
69334;SDS011;56477;52.742;15.242;2023-09-19T05:30:32;7.82;;;2.95;;
69334;SDS011;56477;52.742;15.242;2023-09-19T05:32:59;7.03;;;2.83;;
69334;SDS011;56477;52.742;15.242;2023-09-19T05:35:25;6.10;;;2.78;;
69334;SDS011;56477;52.742;15.242;2023-09-19T05:37:51;3.90;;;1.27;;
69334;SDS011;56477;52.742;15.242;2023-09-19T05:40:18;5.22;;;1.92;;
69334;SDS011;56477;52.742;15.242;2023-09-19T05:42:45;7.03;;;3.00;;
69334;SDS011;56477;52.742;15.242;2023-09-19T05:45:17;6.88;;;2.65;;
69334;SDS011;56477;52.742;15.242;2023-09-19T05:47:48;4.90;;;1.77;;
69334;SDS011;56477;52.742;15.242;2023-09-19T05:50:15;6.60;;;3.33;;
69334;SDS011;56477;52.742;15.242;2023-09-19T05:52:42;9.27;;;2.72;;
69334;SDS011;56477;52.742;15.242;2023-09-19T05:55:09;5.75;;;1.80;;
69334;SDS011;56477;52.742;15.242;2023-09-19T05:57:36;4.10;;;2.25;;
69334;SDS011;56477;52.742;15.242;2023-09-19T06:00:08;7.80;;;3.10;;
69334;SDS011;56477;52.742;15.242;2023-09-19T06:02:36;6.27;;;3.10;;
69334;SDS011;56477;52.742;15.242;2023-09-19T06:05:06;5.80;;;2.78;;
69334;SDS011;56477;52.742;15.242;2023-09-19T06:07:36;5.15;;;3.10;;
69334;SDS011;56477;52.742;15.242;2023-09-19T06:10:04;5.35;;;2.25;;
69334;SDS011;56477;52.742;15.242;2023-09-19T06:12:31;8.18;;;2.95;;
69334;SDS011;56477;52.742;15.242;2023-09-19T06:14:59;6.63;;;3.07;;
69334;SDS011;56477;52.742;15.242;2023-09-19T06:17:25;5.35;;;1.92;;
69334;SDS011;56477;52.742;15.242;2023-09-19T06:19:52;3.63;;;1.67;;
69334;SDS011;56477;52.742;15.242;2023-09-19T06:22:18;4.80;;;2.13;;
69334;SDS011;56477;52.742;15.242;2023-09-19T06:24:45;4.47;;;1.50;;
69334;SDS011;56477;52.742;15.242;2023-09-19T06:27:12;4.00;;;2.08;;
69334;SDS011;56477;52.742;15.242;2023-09-19T06:29:39;4.72;;;1.60;;
69334;SDS011;56477;52.742;15.242;2023-09-19T06:32:08;6.03;;;2.30;;
69334;SDS011;56477;52.742;15.242;2023-09-19T06:34:36;3.17;;;1.33;;
69334;SDS011;56477;52.742;15.242;2023-09-19T06:37:04;3.33;;;1.57;;
69334;SDS011;56477;52.742;15.242;2023-09-19T06:39:32;3.47;;;1.45;;
69334;SDS011;56477;52.742;15.242;2023-09-19T06:41:58;5.80;;;2.03;;
69334;SDS011;56477;52.742;15.242;2023-09-19T06:44:24;5.15;;;1.80;;
69334;SDS011;56477;52.742;15.242;2023-09-19T06:46:50;5.43;;;1.27;;
69334;SDS011;56477;52.742;15.242;2023-09-19T06:49:17;6.40;;;1.75;;
69334;SDS011;56477;52.742;15.242;2023-09-19T06:51:43;4.15;;;1.75;;
69334;SDS011;56477;52.742;15.242;2023-09-19T06:54:10;3.45;;;1.50;;
69334;SDS011;56477;52.742;15.242;2023-09-19T06:56:35;4.00;;;1.50;;
69334;SDS011;56477;52.742;15.242;2023-09-19T06:59:02;5.37;;;1.97;;
69334;SDS011;56477;52.742;15.242;2023-09-19T07:01:31;4.30;;;1.88;;
69334;SDS011;56477;52.742;15.242;2023-09-19T07:03:57;6.15;;;1.55;;
69334;SDS011;56477;52.742;15.242;2023-09-19T07:06:23;5.20;;;1.00;;
69334;SDS011;56477;52.742;15.242;2023-09-19T07:08:50;5.65;;;1.83;;
69334;SDS011;56477;52.742;15.242;2023-09-19T07:11:15;2.37;;;1.27;;
69334;SDS011;56477;52.742;15.242;2023-09-19T07:13:42;7.13;;;2.30;;
69334;SDS011;56477;52.742;15.242;2023-09-19T07:16:08;8.05;;;2.00;;
69334;SDS011;56477;52.742;15.242;2023-09-19T07:18:36;3.65;;;1.75;;
69334;SDS011;56477;52.742;15.242;2023-09-19T07:21:02;3.77;;;1.47;;
69334;SDS011;56477;52.742;15.242;2023-09-19T07:23:30;5.53;;;2.00;;
69334;SDS011;56477;52.742;15.242;2023-09-19T07:26:03;4.38;;;1.90;;
69334;SDS011;56477;52.742;15.242;2023-09-19T07:28:31;4.63;;;2.08;;
69334;SDS011;56477;52.742;15.242;2023-09-19T07:31:01;42.60;;;21.23;;
69334;SDS011;56477;52.742;15.242;2023-09-19T07:33:28;46.10;;;22.10;;
69334;SDS011;56477;52.742;15.242;2023-09-19T07:35:54;40.85;;;19.95;;
69334;SDS011;56477;52.742;15.242;2023-09-19T07:38:20;108.30;;;56.05;;
69334;SDS011;56477;52.742;15.242;2023-09-19T07:40:46;43.85;;;21.88;;
69334;SDS011;56477;52.742;15.242;2023-09-19T07:43:12;69.13;;;34.37;;
69334;SDS011;56477;52.742;15.242;2023-09-19T07:45:38;23.42;;;12.73;;
69334;SDS011;56477;52.742;15.242;2023-09-19T07:48:07;21.67;;;13.35;;
69334;SDS011;56477;52.742;15.242;2023-09-19T07:50:39;29.42;;;16.83;;
69334;SDS011;56477;52.742;15.242;2023-09-19T07:53:06;9.43;;;4.70;;
69334;SDS011;56477;52.742;15.242;2023-09-19T07:55:31;5.32;;;1.80;;
69334;SDS011;56477;52.742;15.242;2023-09-19T07:57:59;36.10;;;22.67;;
69334;SDS011;56477;52.742;15.242;2023-09-19T08:00:26;48.83;;;24.02;;
69334;SDS011;56477;52.742;15.242;2023-09-19T08:02:52;51.53;;;24.07;;
69334;SDS011;56477;52.742;15.242;2023-09-19T08:05:18;16.27;;;9.45;;
69334;SDS011;56477;52.742;15.242;2023-09-19T08:07:44;15.70;;;7.32;;
69334;SDS011;56477;52.742;15.242;2023-09-19T08:10:14;18.70;;;8.48;;
69334;SDS011;56477;52.742;15.242;2023-09-19T08:12:42;55.10;;;26.67;;
69334;SDS011;56477;52.742;15.242;2023-09-19T08:15:18;27.42;;;13.52;;
69334;SDS011;56477;52.742;15.242;2023-09-19T08:17:46;13.25;;;5.95;;
69334;SDS011;56477;52.742;15.242;2023-09-19T08:20:13;18.75;;;8.35;;
69334;SDS011;56477;52.742;15.242;2023-09-19T08:22:43;5.68;;;2.25;;
69334;SDS011;56477;52.742;15.242;2023-09-19T08:25:11;5.57;;;2.63;;
69334;SDS011;56477;52.742;15.242;2023-09-19T08:27:37;11.32;;;4.70;;
69334;SDS011;56477;52.742;15.242;2023-09-19T08:30:03;8.40;;;3.35;;
69334;SDS011;56477;52.742;15.242;2023-09-19T08:32:30;8.18;;;3.05;;
69334;SDS011;56477;52.742;15.242;2023-09-19T08:34:56;9.40;;;4.03;;
69334;SDS011;56477;52.742;15.242;2023-09-19T08:37:22;10.07;;;4.20;;
69334;SDS011;56477;52.742;15.242;2023-09-19T08:39:47;5.43;;;1.90;;
69334;SDS011;56477;52.742;15.242;2023-09-19T08:42:14;3.90;;;1.87;;
69334;SDS011;56477;52.742;15.242;2023-09-19T08:44:42;10.57;;;5.35;;
69334;SDS011;56477;52.742;15.242;2023-09-19T08:47:10;5.53;;;2.08;;
69334;SDS011;56477;52.742;15.242;2023-09-19T08:52:32;8.23;;;3.45;;
69334;SDS011;56477;52.742;15.242;2023-09-19T08:55:02;16.93;;;7.57;;
69334;SDS011;56477;52.742;15.242;2023-09-19T08:57:36;8.80;;;3.60;;
69334;SDS011;56477;52.742;15.242;2023-09-19T09:00:07;6.22;;;2.15;;
69334;SDS011;56477;52.742;15.242;2023-09-19T09:02:38;6.43;;;2.60;;
69334;SDS011;56477;52.742;15.242;2023-09-19T09:05:10;5.35;;;2.85;;
69334;SDS011;56477;52.742;15.242;2023-09-19T09:07:37;6.30;;;2.57;;
69334;SDS011;56477;52.742;15.242;2023-09-19T09:10:04;3.92;;;1.63;;
69334;SDS011;56477;52.742;15.242;2023-09-19T09:12:31;4.88;;;2.05;;
69334;SDS011;56477;52.742;15.242;2023-09-19T09:14:57;2.83;;;1.10;;
69334;SDS011;56477;52.742;15.242;2023-09-19T09:17:23;4.22;;;2.05;;
69334;SDS011;56477;52.742;15.242;2023-09-19T09:19:53;4.93;;;2.50;;
69334;SDS011;56477;52.742;15.242;2023-09-19T09:22:19;7.07;;;2.22;;
69334;SDS011;56477;52.742;15.242;2023-09-19T09:24:52;3.60;;;1.88;;
69334;SDS011;56477;52.742;15.242;2023-09-19T09:27:24;4.35;;;1.90;;
69334;SDS011;56477;52.742;15.242;2023-09-19T09:29:51;5.13;;;2.50;;
69334;SDS011;56477;52.742;15.242;2023-09-19T09:32:26;2.55;;;1.40;;
69334;SDS011;56477;52.742;15.242;2023-09-19T09:35:01;2.97;;;1.70;;
69334;SDS011;56477;52.742;15.242;2023-09-19T09:37:30;4.18;;;1.77;;
69334;SDS011;56477;52.742;15.242;2023-09-19T09:40:00;4.50;;;2.10;;
69334;SDS011;56477;52.742;15.242;2023-09-19T09:42:42;5.20;;;1.80;;
69334;SDS011;56477;52.742;15.242;2023-09-19T09:45:18;3.38;;;1.85;;
69334;SDS011;56477;52.742;15.242;2023-09-19T09:47:54;5.05;;;1.38;;
69334;SDS011;56477;52.742;15.242;2023-09-19T09:50:35;5.00;;;1.88;;
69334;SDS011;56477;52.742;15.242;2023-09-19T09:53:26;4.25;;;1.80;;
69334;SDS011;56477;52.742;15.242;2023-09-19T09:58:24;4.53;;;2.10;;
69334;SDS011;56477;52.742;15.242;2023-09-19T10:00:57;5.43;;;2.20;;
69334;SDS011;56477;52.742;15.242;2023-09-19T10:03:32;4.25;;;1.80;;
69334;SDS011;56477;52.742;15.242;2023-09-19T10:06:00;4.15;;;1.70;;
69334;SDS011;56477;52.742;15.242;2023-09-19T10:08:34;4.73;;;1.80;;
69334;SDS011;56477;52.742;15.242;2023-09-19T10:11:13;6.00;;;2.22;;
69334;SDS011;56477;52.742;15.242;2023-09-19T10:13:41;10.15;;;2.42;;
69334;SDS011;56477;52.742;15.242;2023-09-19T10:16:09;5.07;;;2.40;;
69334;SDS011;56477;52.742;15.242;2023-09-19T10:18:36;3.70;;;1.67;;
69334;SDS011;56477;52.742;15.242;2023-09-19T10:21:04;6.73;;;2.30;;
69334;SDS011;56477;52.742;15.242;2023-09-19T10:23:32;12.50;;;1.85;;
69334;SDS011;56477;52.742;15.242;2023-09-19T10:26:00;4.18;;;1.60;;
69334;SDS011;56477;52.742;15.242;2023-09-19T10:28:27;7.15;;;1.23;;
69334;SDS011;56477;52.742;15.242;2023-09-19T10:30:56;4.93;;;1.85;;
69334;SDS011;56477;52.742;15.242;2023-09-19T10:33:26;7.40;;;2.17;;
69334;SDS011;56477;52.742;15.242;2023-09-19T10:35:52;5.15;;;1.65;;
69334;SDS011;56477;52.742;15.242;2023-09-19T10:38:26;3.67;;;1.05;;
69334;SDS011;56477;52.742;15.242;2023-09-19T10:40:54;4.93;;;1.30;;
69334;SDS011;56477;52.742;15.242;2023-09-19T10:43:26;2.85;;;1.50;;
69334;SDS011;56477;52.742;15.242;2023-09-19T10:45:57;4.63;;;1.67;;
69334;SDS011;56477;52.742;15.242;2023-09-19T10:48:32;4.90;;;1.50;;
69334;SDS011;56477;52.742;15.242;2023-09-19T10:51:06;4.55;;;1.67;;
69334;SDS011;56477;52.742;15.242;2023-09-19T10:53:47;3.53;;;1.77;;
69334;SDS011;56477;52.742;15.242;2023-09-19T10:56:26;4.07;;;1.30;;
69334;SDS011;56477;52.742;15.242;2023-09-19T10:59:19;3.43;;;1.70;;
69334;SDS011;56477;52.742;15.242;2023-09-19T11:01:51;3.35;;;1.48;;
69334;SDS011;56477;52.742;15.242;2023-09-19T11:07:04;5.00;;;1.60;;
69334;SDS011;56477;52.742;15.242;2023-09-19T11:09:50;5.22;;;1.42;;
69334;SDS011;56477;52.742;15.242;2023-09-19T11:15:02;6.15;;;1.77;;
69334;SDS011;56477;52.742;15.242;2023-09-19T11:30:44;3.40;;;1.50;;
69334;SDS011;56477;52.742;15.242;2023-09-19T11:33:31;5.93;;;1.67;;
69334;SDS011;56477;52.742;15.242;2023-09-19T11:36:15;5.85;;;2.47;;
69334;SDS011;56477;52.742;15.242;2023-09-19T11:41:52;3.70;;;1.55;;
69334;SDS011;56477;52.742;15.242;2023-09-19T11:46:32;3.25;;;1.80;;
69334;SDS011;56477;52.742;15.242;2023-09-19T11:49:08;3.08;;;1.60;;
69334;SDS011;56477;52.742;15.242;2023-09-19T11:51:45;4.80;;;1.97;;
69334;SDS011;56477;52.742;15.242;2023-09-19T11:54:13;7.60;;;1.98;;
69334;SDS011;56477;52.742;15.242;2023-09-19T11:56:51;3.63;;;1.92;;
69334;SDS011;56477;52.742;15.242;2023-09-19T11:59:22;5.50;;;1.85;;
69334;SDS011;56477;52.742;15.242;2023-09-19T12:01:50;5.78;;;1.80;;
69334;SDS011;56477;52.742;15.242;2023-09-19T12:04:44;4.83;;;1.70;;
69334;SDS011;56477;52.742;15.242;2023-09-19T12:07:11;5.25;;;1.98;;
69334;SDS011;56477;52.742;15.242;2023-09-19T12:09:41;3.90;;;1.23;;
69334;SDS011;56477;52.742;15.242;2023-09-19T12:12:25;4.40;;;1.95;;
69334;SDS011;56477;52.742;15.242;2023-09-19T12:14:54;4.07;;;1.58;;
69334;SDS011;56477;52.742;15.242;2023-09-19T12:17:23;3.77;;;1.97;;
69334;SDS011;56477;52.742;15.242;2023-09-19T12:20:04;4.38;;;1.40;;
69334;SDS011;56477;52.742;15.242;2023-09-19T12:22:41;3.72;;;1.48;;
69334;SDS011;56477;52.742;15.242;2023-09-19T12:25:09;7.05;;;1.98;;
69334;SDS011;56477;52.742;15.242;2023-09-19T12:27:43;6.63;;;2.00;;
69334;SDS011;56477;52.742;15.242;2023-09-19T12:30:16;2.97;;;1.60;;
69334;SDS011;56477;52.742;15.242;2023-09-19T12:32:46;4.35;;;2.10;;
69334;SDS011;56477;52.742;15.242;2023-09-19T12:35:28;5.60;;;1.90;;
69334;SDS011;56477;52.742;15.242;2023-09-19T12:37:56;3.17;;;1.50;;
69334;SDS011;56477;52.742;15.242;2023-09-19T12:40:22;4.60;;;1.80;;
69334;SDS011;56477;52.742;15.242;2023-09-19T12:42:54;6.43;;;2.30;;
69334;SDS011;56477;52.742;15.242;2023-09-19T12:45:29;5.03;;;1.70;;
69334;SDS011;56477;52.742;15.242;2023-09-19T12:53:41;5.45;;;1.95;;
69334;SDS011;56477;52.742;15.242;2023-09-19T12:56:10;5.37;;;2.00;;
69334;SDS011;56477;52.742;15.242;2023-09-19T13:01:22;3.63;;;1.75;;
69334;SDS011;56477;52.742;15.242;2023-09-19T13:06:49;4.78;;;1.20;;
69334;SDS011;56477;52.742;15.242;2023-09-19T13:09:16;5.10;;;1.87;;
69334;SDS011;56477;52.742;15.242;2023-09-19T13:11:43;3.90;;;2.03;;
69334;SDS011;56477;52.742;15.242;2023-09-19T13:16:53;4.40;;;1.77;;
69334;SDS011;56477;52.742;15.242;2023-09-19T13:19:40;5.03;;;1.80;;
69334;SDS011;56477;52.742;15.242;2023-09-19T13:25:15;6.40;;;1.63;;
69334;SDS011;56477;52.742;15.242;2023-09-19T13:27:46;5.72;;;1.48;;
69334;SDS011;56477;52.742;15.242;2023-09-19T13:30:24;4.53;;;1.35;;
69334;SDS011;56477;52.742;15.242;2023-09-19T13:32:51;5.40;;;1.45;;
69334;SDS011;56477;52.742;15.242;2023-09-19T13:35:19;5.13;;;1.63;;
69334;SDS011;56477;52.742;15.242;2023-09-19T13:37:46;4.90;;;1.45;;
69334;SDS011;56477;52.742;15.242;2023-09-19T13:40:14;4.43;;;1.67;;
69334;SDS011;56477;52.742;15.242;2023-09-19T13:42:41;4.00;;;1.42;;
69334;SDS011;56477;52.742;15.242;2023-09-19T13:45:08;4.55;;;1.70;;
69334;SDS011;56477;52.742;15.242;2023-09-19T13:47:37;4.40;;;1.60;;
69334;SDS011;56477;52.742;15.242;2023-09-19T13:50:04;5.00;;;1.45;;
69334;SDS011;56477;52.742;15.242;2023-09-19T13:52:31;3.88;;;1.75;;
69334;SDS011;56477;52.742;15.242;2023-09-19T13:54:57;4.03;;;1.50;;
69334;SDS011;56477;52.742;15.242;2023-09-19T13:57:23;5.07;;;1.63;;
69334;SDS011;56477;52.742;15.242;2023-09-19T13:59:51;6.60;;;1.30;;
69334;SDS011;56477;52.742;15.242;2023-09-19T14:02:18;6.38;;;1.60;;
69334;SDS011;56477;52.742;15.242;2023-09-19T14:04:44;2.88;;;0.95;;
69334;SDS011;56477;52.742;15.242;2023-09-19T14:07:10;3.33;;;1.43;;
69334;SDS011;56477;52.742;15.242;2023-09-19T14:09:36;3.72;;;1.67;;
69334;SDS011;56477;52.742;15.242;2023-09-19T14:12:03;5.30;;;1.40;;
69334;SDS011;56477;52.742;15.242;2023-09-19T14:14:29;5.43;;;1.10;;
69334;SDS011;56477;52.742;15.242;2023-09-19T14:16:55;3.97;;;1.63;;
69334;SDS011;56477;52.742;15.242;2023-09-19T14:19:21;3.80;;;1.30;;
69334;SDS011;56477;52.742;15.242;2023-09-19T14:21:47;4.57;;;1.50;;
69334;SDS011;56477;52.742;15.242;2023-09-19T14:24:16;5.05;;;1.45;;
69334;SDS011;56477;52.742;15.242;2023-09-19T14:26:43;4.00;;;1.40;;
69334;SDS011;56477;52.742;15.242;2023-09-19T14:29:10;2.13;;;0.60;;
69334;SDS011;56477;52.742;15.242;2023-09-19T14:31:37;4.10;;;1.10;;
69334;SDS011;56477;52.742;15.242;2023-09-19T14:34:07;9.27;;;1.85;;
69334;SDS011;56477;52.742;15.242;2023-09-19T14:36:35;6.85;;;1.45;;
69334;SDS011;56477;52.742;15.242;2023-09-19T14:39:02;2.73;;;0.97;;
69334;SDS011;56477;52.742;15.242;2023-09-19T14:41:28;5.32;;;1.30;;
69334;SDS011;56477;52.742;15.242;2023-09-19T14:43:56;6.88;;;1.52;;
69334;SDS011;56477;52.742;15.242;2023-09-19T14:46:22;5.97;;;1.40;;
69334;SDS011;56477;52.742;15.242;2023-09-19T14:48:53;3.58;;;1.20;;
69334;SDS011;56477;52.742;15.242;2023-09-19T14:51:19;5.37;;;1.33;;
69334;SDS011;56477;52.742;15.242;2023-09-19T14:53:45;5.50;;;1.52;;
69334;SDS011;56477;52.742;15.242;2023-09-19T14:56:12;4.25;;;1.40;;
69334;SDS011;56477;52.742;15.242;2023-09-19T14:58:41;3.67;;;1.35;;
69334;SDS011;56477;52.742;15.242;2023-09-19T15:01:08;3.57;;;0.90;;
69334;SDS011;56477;52.742;15.242;2023-09-19T15:03:38;3.17;;;0.90;;
69334;SDS011;56477;52.742;15.242;2023-09-19T15:06:06;4.97;;;1.00;;
69334;SDS011;56477;52.742;15.242;2023-09-19T15:08:34;5.80;;;1.60;;
69334;SDS011;56477;52.742;15.242;2023-09-19T15:11:08;4.33;;;0.80;;
69334;SDS011;56477;52.742;15.242;2023-09-19T15:13:36;7.47;;;1.13;;
69334;SDS011;56477;52.742;15.242;2023-09-19T15:16:02;6.57;;;1.35;;
69334;SDS011;56477;52.742;15.242;2023-09-19T15:18:30;2.75;;;0.85;;
69334;SDS011;56477;52.742;15.242;2023-09-19T15:20:56;3.17;;;1.35;;
69334;SDS011;56477;52.742;15.242;2023-09-19T15:23:26;3.47;;;1.10;;
69334;SDS011;56477;52.742;15.242;2023-09-19T15:25:51;5.03;;;1.33;;
69334;SDS011;56477;52.742;15.242;2023-09-19T15:28:19;3.08;;;0.73;;
69334;SDS011;56477;52.742;15.242;2023-09-19T15:30:48;5.13;;;1.40;;
69334;SDS011;56477;52.742;15.242;2023-09-19T15:33:15;6.20;;;1.20;;
69334;SDS011;56477;52.742;15.242;2023-09-19T15:35:42;3.15;;;0.80;;
69334;SDS011;56477;52.742;15.242;2023-09-19T15:38:09;4.40;;;1.00;;
69334;SDS011;56477;52.742;15.242;2023-09-19T15:40:34;2.92;;;0.47;;
69334;SDS011;56477;52.742;15.242;2023-09-19T15:43:00;2.07;;;1.00;;
69334;SDS011;56477;52.742;15.242;2023-09-19T15:45:26;2.75;;;0.98;;
69334;SDS011;56477;52.742;15.242;2023-09-19T15:47:52;5.30;;;1.10;;
69334;SDS011;56477;52.742;15.242;2023-09-19T15:50:18;2.07;;;0.83;;
69334;SDS011;56477;52.742;15.242;2023-09-19T15:52:44;2.42;;;0.90;;